createdAt,value
2023-04-16T00:00:54.487Z,2.92
2023-04-16T00:01:57.298Z,2.83
2023-04-16T00:03:01.171Z,3.30
2023-04-16T00:04:04.472Z,2.95
2023-04-16T00:05:08.927Z,3.08
2023-04-16T00:06:12.136Z,3.53
2023-04-16T00:07:15.800Z,3.15
2023-04-16T00:09:21.740Z,3.25
2023-04-16T00:11:29.300Z,3.28
2023-04-16T00:12:31.980Z,4.05
2023-04-16T00:13:35.922Z,3.13
2023-04-16T00:14:38.783Z,3.50
2023-04-16T00:15:42.642Z,4.43
2023-04-16T00:16:45.459Z,3.55
2023-04-16T00:17:49.063Z,3.25
2023-04-16T00:18:51.802Z,3.30
2023-04-16T00:19:55.515Z,2.95
2023-04-16T00:20:58.373Z,2.60
2023-04-16T00:22:02.021Z,2.47
2023-04-16T00:23:04.750Z,2.50
2023-04-16T00:24:08.395Z,3.05
2023-04-16T00:25:11.087Z,2.92
2023-04-16T00:26:14.779Z,2.88
2023-04-16T00:27:19.742Z,2.45
2023-04-16T00:28:23.494Z,3.03
2023-04-16T00:30:31.340Z,2.53
2023-04-16T00:31:35.810Z,2.63
2023-04-16T00:32:38.421Z,3.17
2023-04-16T00:33:42.330Z,3.00
2023-04-16T00:35:48.729Z,2.88
2023-04-16T00:36:51.719Z,2.30
2023-04-16T00:37:55.413Z,2.53
2023-04-16T00:40:01.598Z,3.03
2023-04-16T00:41:05.997Z,2.40
2023-04-16T00:42:10.065Z,2.40
2023-04-16T00:43:22.224Z,2.00
2023-04-16T00:44:25.943Z,2.30
2023-04-16T00:46:32.522Z,2.38
2023-04-16T00:47:35.780Z,2.47
2023-04-16T00:48:42.199Z,2.47
2023-04-16T00:49:45.127Z,2.92
2023-04-16T00:50:49.101Z,2.20
2023-04-16T00:51:51.900Z,2.75
2023-04-16T00:52:55.782Z,3.10
2023-04-16T00:53:58.540Z,2.85
2023-04-16T00:55:03.233Z,2.92
2023-04-16T00:56:07.713Z,2.80
2023-04-16T00:57:11.999Z,3.33
2023-04-16T00:58:16.680Z,2.90
2023-04-16T00:59:20.856Z,2.30
2023-04-16T01:00:23.660Z,3.17
2023-04-16T01:01:27.376Z,2.90
2023-04-16T01:03:40.427Z,2.92
2023-04-16T01:04:43.502Z,2.83
2023-04-16T01:05:49.484Z,2.95
2023-04-16T01:06:52.141Z,3.03
2023-04-16T01:07:59.902Z,3.08
2023-04-16T01:09:02.625Z,3.05
2023-04-16T01:10:06.720Z,3.13
2023-04-16T01:11:10.128Z,3.00
2023-04-16T01:12:13.805Z,3.22
2023-04-16T01:13:18.019Z,3.80
2023-04-16T01:14:21.629Z,3.85
2023-04-16T01:15:24.413Z,3.60
2023-04-16T01:16:28.158Z,3.22
2023-04-16T01:17:30.892Z,3.70
2023-04-16T01:18:34.448Z,3.30
2023-04-16T01:19:37.415Z,3.20
2023-04-16T01:20:42.537Z,3.60
2023-04-16T01:21:45.202Z,3.13
2023-04-16T01:22:48.760Z,3.17
2023-04-16T01:23:51.509Z,3.08
2023-04-16T01:24:55.223Z,3.35
2023-04-16T01:25:58.033Z,3.20
2023-04-16T01:27:01.844Z,3.35
2023-04-16T01:28:04.881Z,3.17
2023-04-16T01:29:08.757Z,3.63
2023-04-16T01:30:30.709Z,2.88
2023-04-16T01:31:34.475Z,2.95
2023-04-16T01:33:40.548Z,3.30
2023-04-16T01:35:48.320Z,3.17
2023-04-16T01:36:51.413Z,2.95
2023-04-16T01:37:55.251Z,3.08
2023-04-16T01:38:58.014Z,2.95
2023-04-16T01:40:01.622Z,3.30
2023-04-16T01:41:06.822Z,3.05
2023-04-16T01:42:10.512Z,3.20
2023-04-16T01:44:16.551Z,3.50
2023-04-16T01:45:19.285Z,2.75
2023-04-16T01:46:28.802Z,3.38
2023-04-16T01:47:31.573Z,3.75
2023-04-16T01:48:35.334Z,3.22
2023-04-16T01:50:41.319Z,3.58
2023-04-16T01:51:45.774Z,3.90
2023-04-16T01:52:49.438Z,3.63
2023-04-16T01:53:52.260Z,3.10
2023-04-16T01:54:56.105Z,3.40
2023-04-16T01:55:58.835Z,3.47
2023-04-16T01:57:03.420Z,3.40
2023-04-16T01:58:08.088Z,3.88
2023-04-16T01:59:12.511Z,2.65
2023-04-16T02:00:15.477Z,3.88
2023-04-16T02:01:19.375Z,3.25
2023-04-16T02:02:28.441Z,3.78
2023-04-16T02:03:32.941Z,3.13
2023-04-16T02:04:35.723Z,3.47
2023-04-16T02:05:39.355Z,2.90
2023-04-16T02:07:47.272Z,2.90
2023-04-16T02:08:49.835Z,2.92
2023-04-16T02:09:53.839Z,3.15
2023-04-16T02:10:57.193Z,4.05
2023-04-16T02:12:02.944Z,3.20
2023-04-16T02:13:06.040Z,3.35
2023-04-16T02:14:10.094Z,3.88
2023-04-16T02:15:13.123Z,3.70
2023-04-16T02:16:16.823Z,3.50
2023-04-16T02:17:40.438Z,3.25
2023-04-16T02:18:44.920Z,3.00
2023-04-16T02:19:48.564Z,3.03
2023-04-16T02:20:51.244Z,2.92
2023-04-16T02:21:55.164Z,3.28
2023-04-16T02:22:59.190Z,3.17
2023-04-16T02:24:02.833Z,3.40
2023-04-16T02:26:09.669Z,2.90
2023-04-16T02:27:12.459Z,3.13
2023-04-16T02:28:17.928Z,3.35
2023-04-16T02:29:20.909Z,3.97
2023-04-16T02:30:24.602Z,2.92
2023-04-16T02:31:28.769Z,3.28
2023-04-16T02:32:32.681Z,3.92
2023-04-16T02:33:36.212Z,3.15
2023-04-16T02:34:40.460Z,2.90
2023-04-16T02:35:43.173Z,3.38
2023-04-16T02:36:47.656Z,3.03
2023-04-16T02:37:50.227Z,3.13
2023-04-16T02:38:55.320Z,3.30
2023-04-16T02:39:58.265Z,4.00
2023-04-16T02:41:01.915Z,3.60
2023-04-16T02:42:04.617Z,3.85
2023-04-16T02:43:08.273Z,3.15
2023-04-16T02:45:14.804Z,3.17
2023-04-16T02:46:17.548Z,3.10
2023-04-16T02:47:21.207Z,2.97
2023-04-16T02:48:23.959Z,3.10
2023-04-16T02:49:27.564Z,3.33
2023-04-16T02:50:31.387Z,3.28
2023-04-16T02:51:33.885Z,2.92
2023-04-16T02:52:37.700Z,3.40
2023-04-16T02:53:40.401Z,3.42
2023-04-16T02:54:45.683Z,2.95
2023-04-16T02:55:52.985Z,3.53
2023-04-16T02:56:57.140Z,3.55
2023-04-16T02:57:59.639Z,3.42
2023-04-16T02:59:03.466Z,3.97
2023-04-16T03:00:07.193Z,4.78
2023-04-16T03:01:11.433Z,4.30
2023-04-16T03:03:18.053Z,3.78
2023-04-16T03:04:20.789Z,3.47
2023-04-16T03:05:24.597Z,3.90
2023-04-16T03:07:31.122Z,3.15
2023-04-16T03:08:33.821Z,3.60
2023-04-16T03:09:37.714Z,3.83
2023-04-16T03:10:41.917Z,3.30
2023-04-16T03:11:45.592Z,3.35
2023-04-16T03:13:51.662Z,3.70
2023-04-16T03:15:57.709Z,3.10
2023-04-16T03:17:01.720Z,3.17
2023-04-16T03:18:05.336Z,3.10
2023-04-16T03:19:08.236Z,2.90
2023-04-16T03:20:12.610Z,3.05
2023-04-16T03:21:15.180Z,3.13
2023-04-16T03:22:18.926Z,2.58
2023-04-16T03:24:25.104Z,3.50
2023-04-16T03:26:32.739Z,2.58
2023-04-16T03:27:35.762Z,2.42
2023-04-16T03:28:39.355Z,2.85
2023-04-16T03:29:41.967Z,2.80
2023-04-16T03:30:51.530Z,3.08
2023-04-16T03:31:54.309Z,3.20
2023-04-16T03:32:58.047Z,2.65
2023-04-16T03:35:04.946Z,2.72
2023-04-16T03:36:08.335Z,2.35
2023-04-16T03:37:12.620Z,2.75
2023-04-16T03:38:15.416Z,2.67
2023-04-16T03:39:19.102Z,2.50
2023-04-16T03:40:21.940Z,2.78
2023-04-16T03:41:25.615Z,2.88
2023-04-16T03:42:29.734Z,3.00
2023-04-16T03:43:33.435Z,3.00
2023-04-16T03:44:37.476Z,2.42
2023-04-16T03:45:45.151Z,2.67
2023-04-16T03:46:49.024Z,2.42
2023-04-16T03:47:53.111Z,3.33
2023-04-16T03:48:57.128Z,2.70
2023-04-16T03:49:59.778Z,2.75
2023-04-16T03:51:03.541Z,3.25
2023-04-16T03:52:06.280Z,3.35
2023-04-16T03:53:09.975Z,2.88
2023-04-16T03:54:12.701Z,3.10
2023-04-16T03:55:16.657Z,2.88
2023-04-16T03:56:19.455Z,2.67
2023-04-16T03:57:23.232Z,2.38
2023-04-16T03:58:27.274Z,3.53
2023-04-16T03:59:31.300Z,2.67
2023-04-16T04:00:33.816Z,2.50
2023-04-16T04:01:37.887Z,2.75
2023-04-16T04:02:40.665Z,3.55
2023-04-16T04:03:44.747Z,2.53
2023-04-16T04:04:47.761Z,2.88
2023-04-16T04:05:51.640Z,3.10
2023-04-16T04:06:54.180Z,3.10
2023-04-16T04:07:58.032Z,3.15
2023-04-16T04:10:04.161Z,3.05
2023-04-16T04:11:06.868Z,2.72
2023-04-16T04:12:11.288Z,2.80
2023-04-16T04:13:13.959Z,2.30
2023-04-16T04:14:19.105Z,2.78
2023-04-16T04:15:21.849Z,2.67
2023-04-16T04:16:25.806Z,3.13
2023-04-16T04:17:28.489Z,2.58
2023-04-16T04:18:32.303Z,2.72
2023-04-16T04:19:35.134Z,2.47
2023-04-16T04:20:41.222Z,2.20
2023-04-16T04:21:43.904Z,2.45
2023-04-16T04:22:47.629Z,2.50
2023-04-16T04:23:50.381Z,2.40
2023-04-16T04:24:54.027Z,2.53
2023-04-16T04:25:56.821Z,2.25
2023-04-16T04:27:00.510Z,2.38
2023-04-16T04:29:06.416Z,2.33
2023-04-16T04:31:15.085Z,2.17
2023-04-16T04:32:17.777Z,2.13
2023-04-16T04:33:21.541Z,1.98
2023-04-16T04:34:24.313Z,2.15
2023-04-16T04:35:27.890Z,2.08
2023-04-16T04:36:31.300Z,1.95
2023-04-16T04:37:35.097Z,2.38
2023-04-16T04:38:37.804Z,1.98
2023-04-16T04:39:41.446Z,2.13
2023-04-16T04:41:47.445Z,1.90
2023-04-16T04:43:54.683Z,1.88
2023-04-16T04:46:02.443Z,1.98
2023-04-16T04:47:05.155Z,2.28
2023-04-16T04:48:08.976Z,2.50
2023-04-16T04:49:11.785Z,2.17
2023-04-16T04:50:15.557Z,2.30
2023-04-16T04:52:22.040Z,1.88
2023-04-16T04:53:24.691Z,2.25
2023-04-16T04:54:28.397Z,2.38
2023-04-16T04:56:34.571Z,2.15
2023-04-16T04:57:37.296Z,2.30
2023-04-16T04:58:41.698Z,2.28
2023-04-16T04:59:44.376Z,2.30
2023-04-16T05:00:48.347Z,2.40
2023-04-16T05:01:52.662Z,2.88
2023-04-16T05:02:56.514Z,2.00
2023-04-16T05:03:59.334Z,2.20
2023-04-16T05:05:03.039Z,2.13
2023-04-16T05:06:07.720Z,2.40
2023-04-16T05:07:11.398Z,2.22
2023-04-16T05:09:17.613Z,2.42
2023-04-16T05:10:20.456Z,2.33
2023-04-16T05:11:24.203Z,2.25
2023-04-16T05:12:26.976Z,2.30
2023-04-16T05:13:30.805Z,2.45
2023-04-16T05:14:33.637Z,2.28
2023-04-16T05:15:39.484Z,2.85
2023-04-16T05:16:42.178Z,2.30
2023-04-16T05:17:47.482Z,2.00
2023-04-16T05:18:50.728Z,2.20
2023-04-16T05:19:54.394Z,2.20
2023-04-16T05:22:00.402Z,2.40
2023-04-16T05:24:06.685Z,2.15
2023-04-16T05:25:10.047Z,2.10
2023-04-16T05:26:13.575Z,2.20
2023-04-16T05:27:17.377Z,2.08
2023-04-16T05:28:19.931Z,2.53
2023-04-16T05:29:23.845Z,2.58
2023-04-16T05:31:29.876Z,2.30
2023-04-16T05:32:32.564Z,2.50
2023-04-16T05:33:37.753Z,2.28
2023-04-16T05:34:40.793Z,2.47
2023-04-16T05:35:44.386Z,1.90
2023-04-16T05:36:47.257Z,1.90
2023-04-16T05:37:50.921Z,1.85
2023-04-16T05:39:56.968Z,1.98
2023-04-16T05:40:59.940Z,2.08
2023-04-16T05:42:03.494Z,2.95
2023-04-16T05:43:06.390Z,2.50
2023-04-16T05:44:10.025Z,2.13
2023-04-16T05:46:16.330Z,2.05
2023-04-16T05:47:19.302Z,2.25
2023-04-16T05:48:22.916Z,2.35
2023-04-16T05:49:26.960Z,1.88
2023-04-16T05:50:30.751Z,2.00
2023-04-16T05:51:33.454Z,2.00
2023-04-16T05:52:37.281Z,2.33
2023-04-16T05:53:39.902Z,2.30
2023-04-16T05:54:43.513Z,2.10
2023-04-16T05:56:50.827Z,2.42
2023-04-16T05:58:56.798Z,1.90
2023-04-16T05:59:59.410Z,2.20
2023-04-16T06:01:03.867Z,2.50
2023-04-16T06:02:09.060Z,2.17
2023-04-16T06:03:11.889Z,2.10
2023-04-16T06:04:15.967Z,2.05
2023-04-16T06:05:20.316Z,2.10
2023-04-16T06:06:24.106Z,2.25
2023-04-16T06:07:26.632Z,2.50
2023-04-16T06:08:30.474Z,1.80
2023-04-16T06:10:36.440Z,1.80
2023-04-16T06:11:39.825Z,1.90
2023-04-16T06:12:43.546Z,2.50
2023-04-16T06:13:46.223Z,2.20
2023-04-16T06:14:49.923Z,2.03
2023-04-16T06:16:56.731Z,1.88
2023-04-16T06:18:00.892Z,2.00
2023-04-16T06:19:04.732Z,2.42
2023-04-16T06:21:12.657Z,1.92
2023-04-16T06:22:15.638Z,1.80
2023-04-16T06:23:19.388Z,1.90
2023-04-16T06:24:22.124Z,2.35
2023-04-16T06:25:25.777Z,2.20
2023-04-16T06:27:32.709Z,2.03
2023-04-16T06:28:35.349Z,1.73
2023-04-16T06:29:41.548Z,2.00
2023-04-16T06:30:44.887Z,2.30
2023-04-16T06:31:49.708Z,2.20
2023-04-16T06:32:54.100Z,1.88
2023-04-16T06:33:58.190Z,2.22
2023-04-16T06:35:00.981Z,2.15
2023-04-16T06:36:04.932Z,2.13
2023-04-16T06:37:10.639Z,2.50
2023-04-16T06:38:14.721Z,2.40
2023-04-16T06:39:17.450Z,2.00
2023-04-16T06:40:21.137Z,2.35
2023-04-16T06:42:29.762Z,1.90
2023-04-16T06:43:33.888Z,1.95
2023-04-16T06:44:37.815Z,2.17
2023-04-16T06:45:40.364Z,2.40
2023-04-16T06:46:44.267Z,2.30
2023-04-16T06:47:48.285Z,2.40
2023-04-16T06:48:52.343Z,2.40
2023-04-16T06:49:55.015Z,2.30
2023-04-16T06:50:58.833Z,2.03
2023-04-16T06:52:03.329Z,2.30
2023-04-16T06:53:10.050Z,1.88
2023-04-16T06:54:13.062Z,1.98
2023-04-16T06:55:16.867Z,2.30
2023-04-16T06:56:20.582Z,2.30
2023-04-16T06:57:24.251Z,2.42
2023-04-16T06:58:27.607Z,2.45
2023-04-16T06:59:31.443Z,2.40
2023-04-16T07:00:34.078Z,2.22
2023-04-16T07:01:37.876Z,2.33
2023-04-16T07:02:40.953Z,2.10
2023-04-16T07:03:44.929Z,2.10
2023-04-16T07:04:48.050Z,2.20
2023-04-16T07:05:51.671Z,1.90
2023-04-16T07:09:02.834Z,2.00
2023-04-16T07:10:07.668Z,1.95
2023-04-16T07:11:11.304Z,3.65
2023-04-16T07:13:18.799Z,1.80
2023-04-16T07:14:21.608Z,1.77
2023-04-16T07:15:25.501Z,1.80
2023-04-16T07:16:28.315Z,1.88
2023-04-16T07:17:31.937Z,2.20
2023-04-16T07:18:34.882Z,1.63
2023-04-16T07:19:38.449Z,2.00
2023-04-16T07:21:44.950Z,1.65
2023-04-16T07:22:48.798Z,1.92
2023-04-16T07:24:56.705Z,2.00
2023-04-16T07:26:00.611Z,2.10
2023-04-16T07:27:03.258Z,1.80
2023-04-16T07:28:07.159Z,1.40
2023-04-16T07:29:09.872Z,1.90
2023-04-16T07:30:14.051Z,2.00
2023-04-16T07:31:16.700Z,1.73
2023-04-16T07:32:21.752Z,1.67
2023-04-16T07:33:26.331Z,1.70
2023-04-16T07:34:29.007Z,1.63
2023-04-16T07:35:33.103Z,1.73
2023-04-16T07:36:35.913Z,1.60
2023-04-16T07:37:39.509Z,1.30
2023-04-16T07:38:42.072Z,1.67
2023-04-16T07:39:45.845Z,1.85
2023-04-16T07:40:49.953Z,1.85
2023-04-16T07:41:53.816Z,1.40
2023-04-16T07:42:56.625Z,1.48
2023-04-16T07:44:00.331Z,1.52
2023-04-16T07:45:04.182Z,1.63
2023-04-16T07:46:08.036Z,1.38
2023-04-16T07:47:10.992Z,1.50
2023-04-16T07:48:14.633Z,1.52
2023-04-16T07:50:20.882Z,1.40
2023-04-16T07:51:23.945Z,1.50
2023-04-16T07:52:28.166Z,1.13
2023-04-16T07:53:30.952Z,1.20
2023-04-16T07:54:34.692Z,1.58
2023-04-16T07:55:37.285Z,1.30
2023-04-16T07:56:42.326Z,1.40
2023-04-16T07:57:45.291Z,1.55
2023-04-16T07:58:48.900Z,1.40
2023-04-16T08:00:55.423Z,1.33
2023-04-16T08:01:58.311Z,1.20
2023-04-16T08:03:02.651Z,1.40
2023-04-16T08:04:05.814Z,1.30
2023-04-16T08:05:10.057Z,1.20
2023-04-16T08:06:13.892Z,1.60
2023-04-16T08:07:17.454Z,1.27
2023-04-16T08:08:20.286Z,1.42
2023-04-16T08:09:25.179Z,1.50
2023-04-16T08:10:29.057Z,1.50
2023-04-16T08:11:31.557Z,1.45
2023-04-16T08:12:36.947Z,1.40
2023-04-16T08:13:40.020Z,1.27
2023-04-16T08:14:43.741Z,2.05
2023-04-16T08:15:47.360Z,1.33
2023-04-16T08:17:54.015Z,1.48
2023-04-16T08:18:59.085Z,1.40
2023-04-16T08:20:02.761Z,1.30
2023-04-16T08:21:08.679Z,1.40
2023-04-16T08:23:14.671Z,1.52
2023-04-16T08:26:23.471Z,1.60
2023-04-16T08:27:27.302Z,1.40
2023-04-16T08:29:34.901Z,1.40
2023-04-16T08:30:38.542Z,1.45
2023-04-16T08:31:42.212Z,1.60
2023-04-16T08:32:47.960Z,1.35
2023-04-16T08:33:51.936Z,1.63
2023-04-16T08:34:56.139Z,1.92
2023-04-16T08:35:58.722Z,1.33
2023-04-16T08:37:02.466Z,1.52
2023-04-16T08:40:12.004Z,1.10
2023-04-16T08:41:16.406Z,1.10
2023-04-16T08:42:29.541Z,1.23
2023-04-16T08:43:35.944Z,1.42
2023-04-16T08:44:44.191Z,1.40
2023-04-16T08:45:49.540Z,1.33
2023-04-16T08:46:57.484Z,1.70
2023-04-16T08:48:02.334Z,1.55
2023-04-16T08:49:07.666Z,1.40
2023-04-16T08:50:13.309Z,1.55
2023-04-16T08:51:18.911Z,1.55
2023-04-16T08:52:25.507Z,1.17
2023-04-16T08:53:36.397Z,1.65
2023-04-16T08:54:44.993Z,1.40
2023-04-16T08:55:50.563Z,1.60
2023-04-16T08:56:53.775Z,1.42
2023-04-16T08:58:01.589Z,1.50
2023-04-16T08:59:06.078Z,1.52
2023-04-16T09:00:11.160Z,1.50
2023-04-16T09:01:15.089Z,1.30
2023-04-16T09:03:25.478Z,1.45
2023-04-16T09:04:29.281Z,1.67
2023-04-16T09:05:34.860Z,1.42
2023-04-16T09:06:38.585Z,1.60
2023-04-16T09:08:47.625Z,1.30
2023-04-16T09:09:53.739Z,1.23
2023-04-16T09:10:57.997Z,1.20
2023-04-16T09:12:01.237Z,1.45
2023-04-16T09:13:05.059Z,1.58
2023-04-16T09:14:10.945Z,1.85
2023-04-16T09:15:15.763Z,1.58
2023-04-16T09:16:19.101Z,1.30
2023-04-16T09:17:23.050Z,1.50
2023-04-16T09:18:28.538Z,1.30
2023-04-16T09:19:31.091Z,1.50
2023-04-16T09:20:34.885Z,1.33
2023-04-16T09:22:41.552Z,1.73
2023-04-16T09:23:44.604Z,1.20
2023-04-16T09:24:48.371Z,1.77
2023-04-16T09:25:51.013Z,1.50
2023-04-16T09:26:56.656Z,1.73
2023-04-16T09:27:59.294Z,1.60
2023-04-16T09:29:03.318Z,1.25
2023-04-16T09:30:24.618Z,1.50
2023-04-16T09:31:27.606Z,1.35
2023-04-16T09:32:31.500Z,1.80
2023-04-16T09:34:56.706Z,1.55
2023-04-16T09:35:59.427Z,2.67
2023-04-16T09:37:18.587Z,1.40
2023-04-16T09:38:21.554Z,1.73
2023-04-16T09:39:25.096Z,1.60
2023-04-16T09:41:33.403Z,1.02
2023-04-16T09:42:37.365Z,1.83
2023-04-16T09:43:41.246Z,1.35
2023-04-16T09:44:44.034Z,1.63
2023-04-16T09:45:57.581Z,1.38
2023-04-16T09:47:07.953Z,1.88
2023-04-16T09:48:11.571Z,1.60
2023-04-16T09:50:20.471Z,1.38
2023-04-16T09:51:25.089Z,1.48
2023-04-16T09:52:27.774Z,1.58
2023-04-16T09:53:33.192Z,1.60
2023-04-16T09:54:36.875Z,1.30
2023-04-16T09:55:40.620Z,1.42
2023-04-16T09:57:48.879Z,1.58
2023-04-16T09:59:57.559Z,1.50
2023-04-16T10:01:03.785Z,1.90
2023-04-16T10:02:15.353Z,1.48
2023-04-16T10:03:20.082Z,1.58
2023-04-16T10:04:22.957Z,1.55
2023-04-16T10:05:28.201Z,1.58
2023-04-16T10:06:31.380Z,1.40
2023-04-16T10:07:36.555Z,1.63
2023-04-16T10:08:45.251Z,1.48
2023-04-16T10:09:48.808Z,2.67
2023-04-16T10:10:52.892Z,1.30
2023-04-16T10:11:55.564Z,1.67
2023-04-16T10:12:59.679Z,1.42
2023-04-16T10:14:02.356Z,1.33
2023-04-16T10:15:06.986Z,1.42
2023-04-16T10:16:11.591Z,1.83
2023-04-16T10:17:15.687Z,1.50
2023-04-16T10:18:23.508Z,1.55
2023-04-16T10:19:28.426Z,1.20
2023-04-16T10:20:31.551Z,1.50
2023-04-16T10:21:35.498Z,1.52
2023-04-16T10:22:38.635Z,1.60
2023-04-16T10:23:43.128Z,1.40
2023-04-16T10:24:47.464Z,1.40
2023-04-16T10:25:51.966Z,1.42
2023-04-16T10:26:55.907Z,1.70
2023-04-16T10:28:00.326Z,1.27
2023-04-16T10:29:04.730Z,1.73
2023-04-16T10:30:10.411Z,1.98
2023-04-16T10:31:15.119Z,1.08
2023-04-16T10:32:21.048Z,1.48
2023-04-16T10:33:28.299Z,1.80
2023-04-16T10:34:33.837Z,1.52
2023-04-16T10:35:40.339Z,1.58
2023-04-16T10:36:44.524Z,1.38
2023-04-16T10:37:47.755Z,1.63
2023-04-16T10:38:52.748Z,1.60
2023-04-16T10:39:55.816Z,1.52
2023-04-16T10:41:03.390Z,1.52
2023-04-16T10:42:11.143Z,1.40
2023-04-16T10:43:18.321Z,1.30
2023-04-16T10:44:21.998Z,1.33
2023-04-16T10:45:31.239Z,1.30
2023-04-16T10:46:39.217Z,1.27
2023-04-16T10:47:43.473Z,1.40
2023-04-16T10:48:50.152Z,1.30
2023-04-16T10:49:53.377Z,1.30
2023-04-16T10:50:59.107Z,1.50
2023-04-16T10:52:08.213Z,1.48
2023-04-16T10:53:24.341Z,1.70
2023-04-16T10:54:29.219Z,1.80
2023-04-16T10:55:31.937Z,1.63
2023-04-16T10:56:37.123Z,1.50
2023-04-16T10:57:40.808Z,1.40
2023-04-16T10:58:43.331Z,1.65
2023-04-16T10:59:48.186Z,1.40
2023-04-16T11:00:51.371Z,1.42
2023-04-16T11:01:58.599Z,1.40
2023-04-16T11:03:02.378Z,1.38
2023-04-16T11:04:36.789Z,1.80
2023-04-16T11:05:47.263Z,1.50
2023-04-16T11:07:03.494Z,1.60
2023-04-16T11:09:49.886Z,1.50
2023-04-16T11:10:54.008Z,1.50
2023-04-16T11:11:56.848Z,1.60
2023-04-16T11:13:01.143Z,1.50
2023-04-16T11:14:05.540Z,1.40
2023-04-16T11:15:11.628Z,1.60
2023-04-16T11:16:14.859Z,1.67
2023-04-16T11:17:20.618Z,1.38
2023-04-16T11:18:23.491Z,1.65
2023-04-16T11:19:27.387Z,1.60
2023-04-16T11:20:31.106Z,1.40
2023-04-16T11:21:35.614Z,1.08
2023-04-16T11:22:38.960Z,1.30
2023-04-16T11:23:50.415Z,1.95
2023-04-16T11:24:55.986Z,1.60
2023-04-16T11:26:00.417Z,1.42
2023-04-16T11:27:03.367Z,1.52
2023-04-16T11:28:07.171Z,1.30
2023-04-16T11:29:15.577Z,1.35
2023-04-16T11:30:20.284Z,1.40
2023-04-16T11:31:23.690Z,1.58
2023-04-16T11:32:29.132Z,1.30
2023-04-16T11:33:32.404Z,1.35
2023-04-16T11:34:36.439Z,1.40
2023-04-16T11:35:39.791Z,1.30
2023-04-16T11:36:46.421Z,1.48
2023-04-16T11:37:49.111Z,1.58
2023-04-16T11:38:53.023Z,1.30
2023-04-16T11:39:55.796Z,1.73
2023-04-16T11:40:59.607Z,1.50
2023-04-16T11:42:03.599Z,1.40
2023-04-16T11:43:17.494Z,1.35
2023-04-16T11:44:22.982Z,1.75
2023-04-16T11:45:26.077Z,1.75
2023-04-16T11:46:40.905Z,1.55
2023-04-16T11:47:47.682Z,1.40
2023-04-16T11:48:51.318Z,1.50
2023-04-16T11:49:55.237Z,1.45
2023-04-16T11:50:58.647Z,1.52
2023-04-16T11:52:02.495Z,1.60
2023-04-16T11:54:11.859Z,1.20
2023-04-16T11:55:15.702Z,1.38
2023-04-16T11:56:27.812Z,1.50
2023-04-16T11:57:33.258Z,1.58
2023-04-16T11:58:36.037Z,1.38
2023-04-16T12:00:02.279Z,1.30
2023-04-16T12:01:07.223Z,1.50
2023-04-16T12:02:10.346Z,1.60
2023-04-16T12:03:15.887Z,1.70
2023-04-16T12:04:21.027Z,1.30
2023-04-16T12:05:32.237Z,1.40
2023-04-16T12:06:35.283Z,1.40
2023-04-16T12:07:46.766Z,1.48
2023-04-16T12:08:50.743Z,1.42
2023-04-16T12:10:06.501Z,1.55
2023-04-16T12:11:10.290Z,1.50
2023-04-16T12:13:40.406Z,1.40
2023-04-16T12:14:52.074Z,1.50
2023-04-16T12:15:57.369Z,1.60
2023-04-16T12:17:18.219Z,1.40
2023-04-16T12:18:24.541Z,1.30
2023-04-16T12:19:29.290Z,1.27
2023-04-16T12:20:41.793Z,1.73
2023-04-16T12:21:46.987Z,1.38
2023-04-16T12:22:49.993Z,1.55
2023-04-16T12:23:55.163Z,2.13
2023-04-16T12:25:01.221Z,1.80
2023-04-16T12:26:10.817Z,1.30
2023-04-16T12:27:13.633Z,1.60
2023-04-16T12:28:27.860Z,2.65
2023-04-16T12:29:32.142Z,1.60
2023-04-16T12:30:36.209Z,1.55
2023-04-16T12:31:38.795Z,1.67
2023-04-16T12:32:43.824Z,1.98
2023-04-16T12:34:02.467Z,1.73
2023-04-16T12:35:06.566Z,1.60
2023-04-16T12:36:20.830Z,1.80
2023-04-16T12:37:23.513Z,1.90
2023-04-16T12:38:27.355Z,2.90
2023-04-16T12:39:30.414Z,4.30
2023-04-16T12:40:34.897Z,4.45
2023-04-16T12:41:39.047Z,5.18
2023-04-16T12:42:42.661Z,5.32
2023-04-16T12:43:45.531Z,7.75
2023-04-16T12:44:49.293Z,11.75
2023-04-16T12:45:51.960Z,18.20
2023-04-16T12:46:58.888Z,20.40
2023-04-16T12:48:01.777Z,16.67
2023-04-16T12:49:07.264Z,17.23
2023-04-16T12:50:11.168Z,18.15
2023-04-16T12:51:14.930Z,16.77
2023-04-16T12:52:19.023Z,19.70
2023-04-16T12:53:21.609Z,16.58
2023-04-16T12:54:29.147Z,15.13
2023-04-16T12:55:32.878Z,12.35
2023-04-16T12:56:36.647Z,13.07
2023-04-16T12:58:42.756Z,10.70
2023-04-16T12:59:47.384Z,10.65
2023-04-16T13:00:49.988Z,8.05
2023-04-16T13:01:53.870Z,8.68
2023-04-16T13:04:29.361Z,7.10
2023-04-16T13:05:33.153Z,5.05
2023-04-16T13:06:38.007Z,6.05
2023-04-16T13:07:41.708Z,7.30
2023-04-16T13:08:46.368Z,6.35
2023-04-16T13:09:50.269Z,6.82
2023-04-16T13:10:52.933Z,7.32
2023-04-16T13:11:56.590Z,7.32
2023-04-16T13:12:59.184Z,5.65
2023-04-16T13:14:02.919Z,5.70
2023-04-16T13:15:06.214Z,5.10
2023-04-16T13:16:09.923Z,5.35
2023-04-16T13:17:13.812Z,5.55
2023-04-16T13:18:16.469Z,3.90
2023-04-16T13:19:21.192Z,3.83
2023-04-16T13:20:25.805Z,3.80
2023-04-16T13:21:29.953Z,3.95
2023-04-16T13:22:32.564Z,3.10
2023-04-16T13:23:37.045Z,2.92
2023-04-16T13:24:39.790Z,3.13
2023-04-16T13:25:44.377Z,3.53
2023-04-16T13:26:48.031Z,2.85
2023-04-16T13:27:50.706Z,3.53
2023-04-16T13:28:54.789Z,3.25
2023-04-16T13:29:57.475Z,4.70
2023-04-16T13:31:05.701Z,4.18
2023-04-16T13:32:10.219Z,4.13
2023-04-16T13:33:13.429Z,3.85
2023-04-16T13:34:18.010Z,4.20
2023-04-16T13:35:20.662Z,3.80
2023-04-16T13:36:27.617Z,4.05
2023-04-16T13:37:30.344Z,3.13
2023-04-16T13:38:34.217Z,2.75
2023-04-16T13:39:37.863Z,2.13
2023-04-16T13:40:40.572Z,1.70
2023-04-16T13:41:44.645Z,1.55
2023-04-16T13:42:47.559Z,1.60
2023-04-16T13:43:51.267Z,1.73
2023-04-16T13:44:55.275Z,1.70
2023-04-16T13:45:58.858Z,1.70
2023-04-16T13:48:05.719Z,3.10
2023-04-16T13:49:09.718Z,1.60
2023-04-16T13:50:12.636Z,1.40
2023-04-16T13:51:16.788Z,1.55
2023-04-16T13:52:24.505Z,1.33
2023-04-16T13:53:28.220Z,1.65
2023-04-16T13:55:34.235Z,1.60
2023-04-16T13:56:38.152Z,1.50
2023-04-16T13:57:41.520Z,1.67
2023-04-16T13:58:45.284Z,1.70
2023-04-16T14:00:51.285Z,1.50
2023-04-16T14:01:54.167Z,1.30
2023-04-16T14:02:58.507Z,1.30
2023-04-16T14:04:06.423Z,1.40
2023-04-16T14:05:11.002Z,1.63
2023-04-16T14:06:15.315Z,1.30
2023-04-16T14:07:18.262Z,1.67
2023-04-16T14:08:23.638Z,1.52
2023-04-16T14:09:26.557Z,1.35
2023-04-16T14:10:30.287Z,1.40
2023-04-16T14:12:36.860Z,1.50
2023-04-16T14:13:39.777Z,1.38
2023-04-16T14:14:43.463Z,1.40
2023-04-16T14:15:47.169Z,1.58
2023-04-16T14:18:55.902Z,1.95
2023-04-16T14:19:59.614Z,1.58
2023-04-16T14:22:07.462Z,1.35
2023-04-16T14:23:13.323Z,1.27
2023-04-16T14:24:18.733Z,1.30
2023-04-16T14:25:21.335Z,1.40
2023-04-16T14:26:24.984Z,1.17
2023-04-16T14:28:32.871Z,1.30
2023-04-16T14:29:37.856Z,1.40
2023-04-16T14:30:41.471Z,1.63
2023-04-16T14:33:49.814Z,1.30
2023-04-16T14:34:55.981Z,1.33
2023-04-16T14:36:02.018Z,1.35
2023-04-16T14:37:06.756Z,1.48
2023-04-16T14:39:12.879Z,1.50
2023-04-16T14:40:18.428Z,1.60
2023-04-16T14:41:21.398Z,1.30
2023-04-16T14:42:25.100Z,1.40
2023-04-16T14:44:31.368Z,1.48
2023-04-16T14:45:35.401Z,1.33
2023-04-16T14:46:38.749Z,1.42
2023-04-16T14:47:46.209Z,1.85
2023-04-16T14:48:48.846Z,1.40
2023-04-16T14:49:52.752Z,1.40
2023-04-16T14:50:56.705Z,1.50
2023-04-16T14:52:02.277Z,1.63
2023-04-16T14:53:06.143Z,1.38
2023-04-16T14:54:09.438Z,1.13
2023-04-16T14:55:13.150Z,1.40
2023-04-16T14:56:17.484Z,1.30
2023-04-16T14:57:21.226Z,1.60
2023-04-16T14:58:23.839Z,1.58
2023-04-16T14:59:27.492Z,1.58
2023-04-16T15:00:30.454Z,1.40
2023-04-16T15:01:35.085Z,1.58
2023-04-16T15:02:39.594Z,1.60
2023-04-16T15:03:44.260Z,1.40
2023-04-16T15:04:48.308Z,1.75
2023-04-16T15:05:55.849Z,1.35
2023-04-16T15:06:59.900Z,1.35
2023-04-16T15:08:04.144Z,1.42
2023-04-16T15:09:07.705Z,1.50
2023-04-16T15:10:12.876Z,1.30
2023-04-16T15:11:17.012Z,1.40
2023-04-16T15:12:21.110Z,1.48
2023-04-16T15:13:23.870Z,1.67
2023-04-16T15:14:27.539Z,1.70
2023-04-16T15:16:33.563Z,1.45
2023-04-16T15:17:36.856Z,1.42
2023-04-16T15:18:40.569Z,1.35
2023-04-16T15:19:44.578Z,1.27
2023-04-16T15:20:47.225Z,1.52
2023-04-16T15:21:50.976Z,1.48
2023-04-16T15:23:57.020Z,1.45
2023-04-16T15:25:00.806Z,1.60
2023-04-16T15:26:03.612Z,1.50
2023-04-16T15:27:11.571Z,1.58
2023-04-16T15:28:15.029Z,1.45
2023-04-16T15:29:18.864Z,1.50
2023-04-16T15:31:25.047Z,1.60
2023-04-16T15:32:28.828Z,1.85
2023-04-16T15:33:31.752Z,1.50
2023-04-16T15:34:35.537Z,1.52
2023-04-16T15:36:43.791Z,1.83
2023-04-16T15:37:46.515Z,1.30
2023-04-16T15:38:50.373Z,1.48
2023-04-16T15:39:54.151Z,1.80
2023-04-16T15:42:03.575Z,1.60
2023-04-16T15:43:09.489Z,1.40
2023-04-16T15:44:13.417Z,1.50
2023-04-16T15:45:16.099Z,1.60
2023-04-16T15:46:19.773Z,1.30
2023-04-16T15:47:22.509Z,1.58
2023-04-16T15:48:26.183Z,1.40
2023-04-16T15:49:30.254Z,1.60